sensor_id;sensor_type;location;lat;lon;timestamp;P1;durP1;ratioP1;P2;durP2;ratioP2
3487;SDS011;38546;48.170;11.724;2023-03-01T00:02:08;35.60;;;16.23;;
3487;SDS011;38546;48.170;11.724;2023-03-01T00:04:58;40.03;;;16.30;;
3487;SDS011;38546;48.170;11.724;2023-03-01T00:07:47;40.77;;;17.47;;
3487;SDS011;38546;48.170;11.724;2023-03-01T00:10:36;37.63;;;17.57;;
3487;SDS011;38546;48.170;11.724;2023-03-01T00:13:26;33.40;;;17.40;;
3487;SDS011;38546;48.170;11.724;2023-03-01T00:16:17;35.93;;;17.53;;
3487;SDS011;38546;48.170;11.724;2023-03-01T00:19:22;32.60;;;16.13;;
3487;SDS011;38546;48.170;11.724;2023-03-01T00:22:11;37.47;;;17.97;;
3487;SDS011;38546;48.170;11.724;2023-03-01T00:25:01;33.10;;;17.70;;
3487;SDS011;38546;48.170;11.724;2023-03-01T00:27:51;32.10;;;16.30;;
3487;SDS011;38546;48.170;11.724;2023-03-01T00:30:41;35.80;;;17.20;;
3487;SDS011;38546;48.170;11.724;2023-03-01T00:33:30;34.47;;;18.60;;
3487;SDS011;38546;48.170;11.724;2023-03-01T00:36:19;36.90;;;18.07;;
3487;SDS011;38546;48.170;11.724;2023-03-01T00:39:13;33.73;;;17.90;;
3487;SDS011;38546;48.170;11.724;2023-03-01T00:42:04;40.50;;;19.07;;
3487;SDS011;38546;48.170;11.724;2023-03-01T00:44:53;34.73;;;17.53;;
3487;SDS011;38546;48.170;11.724;2023-03-01T00:47:42;38.73;;;17.93;;
3487;SDS011;38546;48.170;11.724;2023-03-01T00:50:32;37.10;;;17.70;;
3487;SDS011;38546;48.170;11.724;2023-03-01T00:53:21;39.13;;;19.00;;
3487;SDS011;38546;48.170;11.724;2023-03-01T00:56:11;34.57;;;17.20;;
3487;SDS011;38546;48.170;11.724;2023-03-01T00:59:03;39.73;;;17.73;;
3487;SDS011;38546;48.170;11.724;2023-03-01T01:01:52;31.50;;;17.83;;
3487;SDS011;38546;48.170;11.724;2023-03-01T01:04:41;37.27;;;19.33;;
3487;SDS011;38546;48.170;11.724;2023-03-01T01:07:30;37.40;;;18.10;;
3487;SDS011;38546;48.170;11.724;2023-03-01T01:10:19;29.87;;;17.10;;
3487;SDS011;38546;48.170;11.724;2023-03-01T01:13:08;31.63;;;16.83;;
3487;SDS011;38546;48.170;11.724;2023-03-01T01:16:01;31.23;;;16.43;;
3487;SDS011;38546;48.170;11.724;2023-03-01T01:18:51;30.10;;;15.60;;
3487;SDS011;38546;48.170;11.724;2023-03-01T01:21:41;35.87;;;17.67;;
3487;SDS011;38546;48.170;11.724;2023-03-01T01:24:33;35.23;;;16.73;;
3487;SDS011;38546;48.170;11.724;2023-03-01T01:27:23;29.67;;;17.27;;
3487;SDS011;38546;48.170;11.724;2023-03-01T01:30:12;28.77;;;16.20;;
3487;SDS011;38546;48.170;11.724;2023-03-01T01:33:02;33.47;;;16.27;;
3487;SDS011;38546;48.170;11.724;2023-03-01T01:35:52;38.13;;;17.90;;
3487;SDS011;38546;48.170;11.724;2023-03-01T01:38:42;27.83;;;15.97;;
3487;SDS011;38546;48.170;11.724;2023-03-01T01:41:31;34.37;;;17.20;;
3487;SDS011;38546;48.170;11.724;2023-03-01T01:44:22;29.80;;;15.70;;
3487;SDS011;38546;48.170;11.724;2023-03-01T01:47:16;33.13;;;17.33;;
3487;SDS011;38546;48.170;11.724;2023-03-01T01:50:09;34.67;;;18.00;;
3487;SDS011;38546;48.170;11.724;2023-03-01T01:53:07;35.20;;;19.23;;
3487;SDS011;38546;48.170;11.724;2023-03-01T01:56:01;32.60;;;16.70;;
3487;SDS011;38546;48.170;11.724;2023-03-01T01:58:54;39.30;;;18.13;;
3487;SDS011;38546;48.170;11.724;2023-03-01T02:01:44;40.27;;;18.90;;
3487;SDS011;38546;48.170;11.724;2023-03-01T02:04:33;34.80;;;19.47;;
3487;SDS011;38546;48.170;11.724;2023-03-01T02:07:23;31.97;;;17.50;;
3487;SDS011;38546;48.170;11.724;2023-03-01T02:10:13;36.30;;;17.57;;
3487;SDS011;38546;48.170;11.724;2023-03-01T02:13:02;27.20;;;16.37;;
3487;SDS011;38546;48.170;11.724;2023-03-01T02:15:52;35.43;;;17.57;;
3487;SDS011;38546;48.170;11.724;2023-03-01T02:18:42;38.13;;;17.80;;
3487;SDS011;38546;48.170;11.724;2023-03-01T02:25:20;34.33;;;19.00;;
3487;SDS011;38546;48.170;11.724;2023-03-01T02:28:49;36.90;;;17.40;;
3487;SDS011;38546;48.170;11.724;2023-03-01T02:31:39;36.13;;;17.53;;
3487;SDS011;38546;48.170;11.724;2023-03-01T02:34:32;32.73;;;18.03;;
3487;SDS011;38546;48.170;11.724;2023-03-01T02:37:22;33.40;;;16.80;;
3487;SDS011;38546;48.170;11.724;2023-03-01T02:40:16;32.43;;;17.40;;
3487;SDS011;38546;48.170;11.724;2023-03-01T02:43:08;31.67;;;17.00;;
3487;SDS011;38546;48.170;11.724;2023-03-01T02:46:05;34.47;;;16.90;;
3487;SDS011;38546;48.170;11.724;2023-03-01T02:49:02;39.90;;;18.50;;
3487;SDS011;38546;48.170;11.724;2023-03-01T02:56:48;31.03;;;16.07;;
3487;SDS011;38546;48.170;11.724;2023-03-01T02:59:37;37.23;;;19.47;;
3487;SDS011;38546;48.170;11.724;2023-03-01T03:02:29;44.27;;;19.50;;
3487;SDS011;38546;48.170;11.724;2023-03-01T03:05:29;38.10;;;17.40;;
3487;SDS011;38546;48.170;11.724;2023-03-01T03:08:19;33.73;;;18.43;;
3487;SDS011;38546;48.170;11.724;2023-03-01T03:11:12;34.70;;;17.60;;
3487;SDS011;38546;48.170;11.724;2023-03-01T03:14:01;41.90;;;18.87;;
3487;SDS011;38546;48.170;11.724;2023-03-01T03:16:51;33.63;;;16.50;;
3487;SDS011;38546;48.170;11.724;2023-03-01T03:19:40;32.77;;;17.30;;
3487;SDS011;38546;48.170;11.724;2023-03-01T03:22:34;42.70;;;17.17;;
3487;SDS011;38546;48.170;11.724;2023-03-01T03:25:23;37.80;;;18.70;;
3487;SDS011;38546;48.170;11.724;2023-03-01T03:28:14;34.20;;;18.17;;
3487;SDS011;38546;48.170;11.724;2023-03-01T03:31:05;36.27;;;18.37;;
3487;SDS011;38546;48.170;11.724;2023-03-01T03:33:55;33.67;;;17.80;;
3487;SDS011;38546;48.170;11.724;2023-03-01T03:36:45;34.23;;;17.30;;
3487;SDS011;38546;48.170;11.724;2023-03-01T03:39:34;34.97;;;17.40;;
3487;SDS011;38546;48.170;11.724;2023-03-01T03:42:23;37.93;;;18.83;;
3487;SDS011;38546;48.170;11.724;2023-03-01T03:45:12;35.77;;;17.90;;
3487;SDS011;38546;48.170;11.724;2023-03-01T03:48:03;34.87;;;17.77;;
3487;SDS011;38546;48.170;11.724;2023-03-01T03:50:55;35.07;;;16.90;;
3487;SDS011;38546;48.170;11.724;2023-03-01T03:53:45;36.70;;;17.33;;
3487;SDS011;38546;48.170;11.724;2023-03-01T03:56:35;39.70;;;18.90;;
3487;SDS011;38546;48.170;11.724;2023-03-01T03:59:24;32.93;;;18.27;;
3487;SDS011;38546;48.170;11.724;2023-03-01T04:02:14;36.63;;;17.73;;
3487;SDS011;38546;48.170;11.724;2023-03-01T04:05:11;33.80;;;18.07;;
3487;SDS011;38546;48.170;11.724;2023-03-01T04:08:03;36.33;;;16.50;;
3487;SDS011;38546;48.170;11.724;2023-03-01T04:11:03;34.53;;;17.80;;
3487;SDS011;38546;48.170;11.724;2023-03-01T04:14:12;35.90;;;18.07;;
3487;SDS011;38546;48.170;11.724;2023-03-01T04:17:01;30.50;;;16.87;;
3487;SDS011;38546;48.170;11.724;2023-03-01T04:19:53;36.43;;;19.83;;
3487;SDS011;38546;48.170;11.724;2023-03-01T04:22:43;33.50;;;18.33;;
3487;SDS011;38546;48.170;11.724;2023-03-01T04:25:42;35.33;;;17.73;;
3487;SDS011;38546;48.170;11.724;2023-03-01T04:28:42;32.03;;;17.23;;
3487;SDS011;38546;48.170;11.724;2023-03-01T04:31:33;36.87;;;18.13;;
3487;SDS011;38546;48.170;11.724;2023-03-01T04:34:22;40.73;;;18.97;;
3487;SDS011;38546;48.170;11.724;2023-03-01T04:37:12;33.83;;;17.80;;
3487;SDS011;38546;48.170;11.724;2023-03-01T04:40:02;38.03;;;18.73;;
3487;SDS011;38546;48.170;11.724;2023-03-01T04:43:04;29.33;;;17.60;;
3487;SDS011;38546;48.170;11.724;2023-03-01T04:45:54;36.50;;;19.07;;
3487;SDS011;38546;48.170;11.724;2023-03-01T04:48:43;42.23;;;18.73;;
3487;SDS011;38546;48.170;11.724;2023-03-01T04:51:35;38.50;;;17.57;;
3487;SDS011;38546;48.170;11.724;2023-03-01T04:54:24;46.77;;;17.93;;
3487;SDS011;38546;48.170;11.724;2023-03-01T04:57:13;37.40;;;17.30;;
3487;SDS011;38546;48.170;11.724;2023-03-01T05:00:03;38.27;;;18.53;;
3487;SDS011;38546;48.170;11.724;2023-03-01T05:03:08;29.63;;;15.70;;
3487;SDS011;38546;48.170;11.724;2023-03-01T05:05:58;43.07;;;19.40;;
3487;SDS011;38546;48.170;11.724;2023-03-01T05:08:48;31.03;;;16.40;;
3487;SDS011;38546;48.170;11.724;2023-03-01T05:11:38;35.47;;;17.43;;
3487;SDS011;38546;48.170;11.724;2023-03-01T05:14:27;36.43;;;16.80;;
3487;SDS011;38546;48.170;11.724;2023-03-01T05:17:17;33.20;;;17.57;;
3487;SDS011;38546;48.170;11.724;2023-03-01T05:20:07;30.90;;;16.20;;
3487;SDS011;38546;48.170;11.724;2023-03-01T05:22:59;33.33;;;15.40;;
3487;SDS011;38546;48.170;11.724;2023-03-01T05:25:53;41.97;;;19.00;;
3487;SDS011;38546;48.170;11.724;2023-03-01T05:28:47;34.70;;;16.47;;
3487;SDS011;38546;48.170;11.724;2023-03-01T05:31:37;31.80;;;17.53;;
3487;SDS011;38546;48.170;11.724;2023-03-01T05:34:27;36.77;;;17.07;;
3487;SDS011;38546;48.170;11.724;2023-03-01T05:37:20;39.10;;;17.50;;
3487;SDS011;38546;48.170;11.724;2023-03-01T05:40:10;33.50;;;16.47;;
3487;SDS011;38546;48.170;11.724;2023-03-01T05:43:03;31.67;;;16.10;;
3487;SDS011;38546;48.170;11.724;2023-03-01T05:45:53;37.00;;;16.43;;
3487;SDS011;38546;48.170;11.724;2023-03-01T05:48:46;33.30;;;17.57;;
3487;SDS011;38546;48.170;11.724;2023-03-01T05:51:36;37.50;;;17.13;;
3487;SDS011;38546;48.170;11.724;2023-03-01T05:54:25;38.77;;;17.53;;
3487;SDS011;38546;48.170;11.724;2023-03-01T05:57:14;34.03;;;17.50;;
3487;SDS011;38546;48.170;11.724;2023-03-01T06:00:03;37.63;;;17.10;;
3487;SDS011;38546;48.170;11.724;2023-03-01T06:02:54;40.00;;;20.17;;
3487;SDS011;38546;48.170;11.724;2023-03-01T06:05:45;48.07;;;25.27;;
3487;SDS011;38546;48.170;11.724;2023-03-01T06:08:34;33.47;;;18.47;;
3487;SDS011;38546;48.170;11.724;2023-03-01T06:11:23;43.47;;;19.30;;
3487;SDS011;38546;48.170;11.724;2023-03-01T06:14:13;37.03;;;18.07;;
3487;SDS011;38546;48.170;11.724;2023-03-01T06:17:03;34.90;;;17.83;;
3487;SDS011;38546;48.170;11.724;2023-03-01T06:19:52;41.40;;;17.80;;
3487;SDS011;38546;48.170;11.724;2023-03-01T06:22:41;37.27;;;18.00;;
3487;SDS011;38546;48.170;11.724;2023-03-01T06:25:32;29.83;;;16.47;;
3487;SDS011;38546;48.170;11.724;2023-03-01T06:28:21;33.63;;;17.23;;
3487;SDS011;38546;48.170;11.724;2023-03-01T06:31:11;36.20;;;17.03;;
3487;SDS011;38546;48.170;11.724;2023-03-01T06:34:00;33.20;;;17.00;;
3487;SDS011;38546;48.170;11.724;2023-03-01T06:36:49;38.67;;;18.03;;
3487;SDS011;38546;48.170;11.724;2023-03-01T06:39:38;34.17;;;17.53;;
3487;SDS011;38546;48.170;11.724;2023-03-01T06:42:27;36.03;;;16.90;;
3487;SDS011;38546;48.170;11.724;2023-03-01T06:45:17;34.90;;;17.97;;
3487;SDS011;38546;48.170;11.724;2023-03-01T06:48:08;36.40;;;17.90;;
3487;SDS011;38546;48.170;11.724;2023-03-01T06:51:00;50.70;;;18.90;;
3487;SDS011;38546;48.170;11.724;2023-03-01T06:53:49;35.63;;;17.37;;
3487;SDS011;38546;48.170;11.724;2023-03-01T06:56:38;33.50;;;16.53;;
3487;SDS011;38546;48.170;11.724;2023-03-01T06:59:28;35.47;;;16.57;;
3487;SDS011;38546;48.170;11.724;2023-03-01T07:02:17;38.57;;;17.20;;
3487;SDS011;38546;48.170;11.724;2023-03-01T07:05:06;41.33;;;17.10;;
3487;SDS011;38546;48.170;11.724;2023-03-01T07:07:56;36.57;;;18.27;;
3487;SDS011;38546;48.170;11.724;2023-03-01T07:10:45;41.97;;;19.53;;
3487;SDS011;38546;48.170;11.724;2023-03-01T07:13:34;36.07;;;17.27;;
3487;SDS011;38546;48.170;11.724;2023-03-01T07:16:23;37.50;;;18.03;;
3487;SDS011;38546;48.170;11.724;2023-03-01T07:19:13;31.87;;;15.97;;
3487;SDS011;38546;48.170;11.724;2023-03-01T07:22:03;30.33;;;16.40;;
3487;SDS011;38546;48.170;11.724;2023-03-01T07:24:53;39.37;;;17.23;;
3487;SDS011;38546;48.170;11.724;2023-03-01T07:27:42;35.83;;;17.00;;
3487;SDS011;38546;48.170;11.724;2023-03-01T07:30:32;38.00;;;16.83;;
3487;SDS011;38546;48.170;11.724;2023-03-01T07:33:21;42.30;;;16.87;;
3487;SDS011;38546;48.170;11.724;2023-03-01T07:36:10;36.83;;;19.47;;
3487;SDS011;38546;48.170;11.724;2023-03-01T07:38:59;31.50;;;16.57;;
3487;SDS011;38546;48.170;11.724;2023-03-01T07:41:51;34.50;;;18.17;;
3487;SDS011;38546;48.170;11.724;2023-03-01T07:44:40;36.13;;;18.20;;
3487;SDS011;38546;48.170;11.724;2023-03-01T07:47:29;36.23;;;18.10;;
3487;SDS011;38546;48.170;11.724;2023-03-01T07:50:19;34.50;;;18.63;;
3487;SDS011;38546;48.170;11.724;2023-03-01T07:53:09;48.23;;;17.50;;
3487;SDS011;38546;48.170;11.724;2023-03-01T07:56:08;36.77;;;18.10;;
3487;SDS011;38546;48.170;11.724;2023-03-01T07:59:00;34.07;;;18.30;;
3487;SDS011;38546;48.170;11.724;2023-03-01T08:01:49;43.30;;;17.13;;
3487;SDS011;38546;48.170;11.724;2023-03-01T08:04:39;29.97;;;15.90;;
3487;SDS011;38546;48.170;11.724;2023-03-01T08:07:28;36.20;;;18.50;;
3487;SDS011;38546;48.170;11.724;2023-03-01T08:10:17;35.97;;;16.83;;
3487;SDS011;38546;48.170;11.724;2023-03-01T08:13:06;34.43;;;17.00;;
3487;SDS011;38546;48.170;11.724;2023-03-01T08:16:02;38.30;;;17.90;;
3487;SDS011;38546;48.170;11.724;2023-03-01T08:18:54;34.90;;;18.80;;
3487;SDS011;38546;48.170;11.724;2023-03-01T08:21:45;34.70;;;17.27;;
3487;SDS011;38546;48.170;11.724;2023-03-01T08:24:34;38.90;;;18.00;;
3487;SDS011;38546;48.170;11.724;2023-03-01T08:27:23;31.70;;;16.07;;
3487;SDS011;38546;48.170;11.724;2023-03-01T08:30:12;32.23;;;17.83;;
3487;SDS011;38546;48.170;11.724;2023-03-01T08:33:03;43.23;;;16.70;;
3487;SDS011;38546;48.170;11.724;2023-03-01T08:35:52;35.93;;;16.30;;
3487;SDS011;38546;48.170;11.724;2023-03-01T08:38:51;36.03;;;16.67;;
3487;SDS011;38546;48.170;11.724;2023-03-01T08:41:41;40.83;;;16.37;;
3487;SDS011;38546;48.170;11.724;2023-03-01T08:44:31;30.60;;;16.70;;
3487;SDS011;38546;48.170;11.724;2023-03-01T08:47:22;39.10;;;17.00;;
3487;SDS011;38546;48.170;11.724;2023-03-01T08:50:11;33.97;;;16.93;;
3487;SDS011;38546;48.170;11.724;2023-03-01T08:53:00;40.90;;;16.97;;
3487;SDS011;38546;48.170;11.724;2023-03-01T08:55:49;36.23;;;15.43;;
3487;SDS011;38546;48.170;11.724;2023-03-01T08:58:39;32.17;;;17.03;;
3487;SDS011;38546;48.170;11.724;2023-03-01T09:01:28;31.83;;;16.33;;
3487;SDS011;38546;48.170;11.724;2023-03-01T09:04:19;35.03;;;17.50;;
3487;SDS011;38546;48.170;11.724;2023-03-01T09:07:08;33.77;;;16.93;;
3487;SDS011;38546;48.170;11.724;2023-03-01T09:09:58;35.97;;;15.60;;
3487;SDS011;38546;48.170;11.724;2023-03-01T09:12:47;31.83;;;15.07;;
3487;SDS011;38546;48.170;11.724;2023-03-01T09:15:37;29.20;;;15.33;;
3487;SDS011;38546;48.170;11.724;2023-03-01T09:18:27;31.33;;;16.67;;
3487;SDS011;38546;48.170;11.724;2023-03-01T09:21:17;32.40;;;16.83;;
3487;SDS011;38546;48.170;11.724;2023-03-01T09:24:13;35.70;;;17.90;;
3487;SDS011;38546;48.170;11.724;2023-03-01T09:27:03;34.30;;;16.77;;
3487;SDS011;38546;48.170;11.724;2023-03-01T09:29:57;33.00;;;16.53;;
3487;SDS011;38546;48.170;11.724;2023-03-01T09:32:46;39.63;;;17.30;;
3487;SDS011;38546;48.170;11.724;2023-03-01T09:35:36;37.60;;;17.73;;
3487;SDS011;38546;48.170;11.724;2023-03-01T09:38:25;27.47;;;14.70;;
3487;SDS011;38546;48.170;11.724;2023-03-01T09:45:33;31.50;;;15.23;;
3487;SDS011;38546;48.170;11.724;2023-03-01T09:48:27;38.30;;;18.40;;
3487;SDS011;38546;48.170;11.724;2023-03-01T09:51:26;29.67;;;16.40;;
3487;SDS011;38546;48.170;11.724;2023-03-01T09:54:22;29.47;;;17.40;;
3487;SDS011;38546;48.170;11.724;2023-03-01T09:57:18;33.20;;;18.00;;
3487;SDS011;38546;48.170;11.724;2023-03-01T10:03:43;34.30;;;17.30;;
3487;SDS011;38546;48.170;11.724;2023-03-01T10:07:05;34.60;;;17.43;;
3487;SDS011;38546;48.170;11.724;2023-03-01T10:10:16;37.00;;;18.23;;
3487;SDS011;38546;48.170;11.724;2023-03-01T10:13:37;30.83;;;16.77;;
3487;SDS011;38546;48.170;11.724;2023-03-01T10:18:15;41.80;;;18.20;;
3487;SDS011;38546;48.170;11.724;2023-03-01T10:21:14;32.57;;;17.67;;
3487;SDS011;38546;48.170;11.724;2023-03-01T10:24:12;33.07;;;17.60;;
3487;SDS011;38546;48.170;11.724;2023-03-01T10:27:05;36.50;;;18.80;;
3487;SDS011;38546;48.170;11.724;2023-03-01T10:30:15;40.27;;;18.93;;
3487;SDS011;38546;48.170;11.724;2023-03-01T10:33:32;33.20;;;18.10;;
3487;SDS011;38546;48.170;11.724;2023-03-01T10:36:26;36.90;;;18.83;;
3487;SDS011;38546;48.170;11.724;2023-03-01T10:39:17;38.97;;;19.70;;
3487;SDS011;38546;48.170;11.724;2023-03-01T10:42:19;36.23;;;18.20;;
3487;SDS011;38546;48.170;11.724;2023-03-01T10:45:17;43.90;;;19.83;;
3487;SDS011;38546;48.170;11.724;2023-03-01T10:48:40;35.27;;;17.40;;
3487;SDS011;38546;48.170;11.724;2023-03-01T10:51:29;36.10;;;18.80;;
3487;SDS011;38546;48.170;11.724;2023-03-01T10:54:20;36.30;;;19.50;;
3487;SDS011;38546;48.170;11.724;2023-03-01T10:57:27;44.00;;;19.93;;
3487;SDS011;38546;48.170;11.724;2023-03-01T11:00:26;37.23;;;19.37;;
3487;SDS011;38546;48.170;11.724;2023-03-01T11:03:18;34.77;;;18.13;;
3487;SDS011;38546;48.170;11.724;2023-03-01T11:06:22;43.00;;;20.40;;
3487;SDS011;38546;48.170;11.724;2023-03-01T11:09:18;33.50;;;17.70;;
3487;SDS011;38546;48.170;11.724;2023-03-01T11:12:13;29.63;;;16.73;;
3487;SDS011;38546;48.170;11.724;2023-03-01T11:15:04;33.83;;;17.33;;
3487;SDS011;38546;48.170;11.724;2023-03-01T11:18:19;31.67;;;18.50;;
3487;SDS011;38546;48.170;11.724;2023-03-01T11:21:10;35.80;;;18.27;;
3487;SDS011;38546;48.170;11.724;2023-03-01T11:24:00;36.83;;;17.00;;
3487;SDS011;38546;48.170;11.724;2023-03-01T11:26:52;35.37;;;17.90;;
3487;SDS011;38546;48.170;11.724;2023-03-01T11:29:44;37.37;;;17.87;;
3487;SDS011;38546;48.170;11.724;2023-03-01T11:32:44;42.37;;;19.70;;
3487;SDS011;38546;48.170;11.724;2023-03-01T11:35:53;40.37;;;19.80;;
3487;SDS011;38546;48.170;11.724;2023-03-01T11:38:51;33.17;;;17.50;;
3487;SDS011;38546;48.170;11.724;2023-03-01T11:41:42;45.87;;;19.50;;
3487;SDS011;38546;48.170;11.724;2023-03-01T11:44:32;31.23;;;16.83;;
3487;SDS011;38546;48.170;11.724;2023-03-01T11:52:48;35.30;;;19.17;;
3487;SDS011;38546;48.170;11.724;2023-03-01T12:17:34;38.73;;;19.10;;
3487;SDS011;38546;48.170;11.724;2023-03-01T12:21:59;39.00;;;19.00;;
3487;SDS011;38546;48.170;11.724;2023-03-01T12:28:01;31.83;;;18.10;;
3487;SDS011;38546;48.170;11.724;2023-03-01T12:32:42;36.73;;;18.20;;
3487;SDS011;38546;48.170;11.724;2023-03-01T12:42:24;42.80;;;19.50;;
3487;SDS011;38546;48.170;11.724;2023-03-01T12:46:02;35.40;;;19.47;;
3487;SDS011;38546;48.170;11.724;2023-03-01T12:51:01;37.37;;;18.00;;
3487;SDS011;38546;48.170;11.724;2023-03-01T12:53:56;39.67;;;19.80;;
3487;SDS011;38546;48.170;11.724;2023-03-01T12:56:50;40.93;;;19.97;;
3487;SDS011;38546;48.170;11.724;2023-03-01T13:00:00;38.77;;;19.23;;
3487;SDS011;38546;48.170;11.724;2023-03-01T13:09:03;35.03;;;18.53;;
3487;SDS011;38546;48.170;11.724;2023-03-01T13:12:02;32.60;;;17.70;;
3487;SDS011;38546;48.170;11.724;2023-03-01T13:14:53;41.00;;;18.87;;
3487;SDS011;38546;48.170;11.724;2023-03-01T13:17:43;40.87;;;20.57;;
3487;SDS011;38546;48.170;11.724;2023-03-01T13:20:47;34.33;;;18.57;;
3487;SDS011;38546;48.170;11.724;2023-03-01T13:23:43;46.63;;;22.03;;
3487;SDS011;38546;48.170;11.724;2023-03-01T13:27:08;35.90;;;18.40;;
3487;SDS011;38546;48.170;11.724;2023-03-01T13:30:00;37.00;;;19.87;;
3487;SDS011;38546;48.170;11.724;2023-03-01T13:33:03;39.17;;;19.70;;
3487;SDS011;38546;48.170;11.724;2023-03-01T13:37:34;37.97;;;19.10;;
3487;SDS011;38546;48.170;11.724;2023-03-01T13:44:24;36.53;;;19.20;;
3487;SDS011;38546;48.170;11.724;2023-03-01T13:47:19;36.53;;;20.70;;
3487;SDS011;38546;48.170;11.724;2023-03-01T13:50:16;38.97;;;19.40;;
3487;SDS011;38546;48.170;11.724;2023-03-01T13:53:11;36.73;;;18.40;;
3487;SDS011;38546;48.170;11.724;2023-03-01T13:56:08;37.47;;;19.40;;
3487;SDS011;38546;48.170;11.724;2023-03-01T13:59:22;35.70;;;19.83;;
3487;SDS011;38546;48.170;11.724;2023-03-01T14:02:14;37.23;;;18.10;;
3487;SDS011;38546;48.170;11.724;2023-03-01T14:05:05;37.73;;;17.93;;
3487;SDS011;38546;48.170;11.724;2023-03-01T14:08:00;36.10;;;19.53;;
3487;SDS011;38546;48.170;11.724;2023-03-01T14:21:40;34.20;;;17.53;;
3487;SDS011;38546;48.170;11.724;2023-03-01T14:24:29;40.97;;;19.13;;
3487;SDS011;38546;48.170;11.724;2023-03-01T14:27:23;37.07;;;19.00;;
3487;SDS011;38546;48.170;11.724;2023-03-01T14:30:21;31.00;;;17.70;;
3487;SDS011;38546;48.170;11.724;2023-03-01T14:33:28;37.97;;;17.97;;
3487;SDS011;38546;48.170;11.724;2023-03-01T14:36:26;32.50;;;16.97;;
3487;SDS011;38546;48.170;11.724;2023-03-01T14:39:23;35.03;;;17.90;;
3487;SDS011;38546;48.170;11.724;2023-03-01T14:42:14;33.10;;;17.40;;
3487;SDS011;38546;48.170;11.724;2023-03-01T14:45:05;34.37;;;16.90;;
3487;SDS011;38546;48.170;11.724;2023-03-01T14:48:00;35.97;;;17.40;;
3487;SDS011;38546;48.170;11.724;2023-03-01T14:50:53;38.40;;;18.17;;
3487;SDS011;38546;48.170;11.724;2023-03-01T14:53:43;32.00;;;15.50;;
3487;SDS011;38546;48.170;11.724;2023-03-01T14:56:42;33.40;;;16.50;;
3487;SDS011;38546;48.170;11.724;2023-03-01T14:59:34;35.13;;;16.40;;
3487;SDS011;38546;48.170;11.724;2023-03-01T15:02:24;32.50;;;17.17;;
3487;SDS011;38546;48.170;11.724;2023-03-01T15:05:15;36.00;;;17.23;;
3487;SDS011;38546;48.170;11.724;2023-03-01T15:08:16;31.60;;;16.50;;
3487;SDS011;38546;48.170;11.724;2023-03-01T15:11:23;32.27;;;16.03;;
3487;SDS011;38546;48.170;11.724;2023-03-01T15:17:48;34.57;;;16.23;;
3487;SDS011;38546;48.170;11.724;2023-03-01T15:20:44;32.40;;;16.80;;
3487;SDS011;38546;48.170;11.724;2023-03-01T15:23:35;30.53;;;15.57;;
3487;SDS011;38546;48.170;11.724;2023-03-01T15:26:31;33.60;;;16.80;;
3487;SDS011;38546;48.170;11.724;2023-03-01T15:29:31;36.50;;;15.80;;
3487;SDS011;38546;48.170;11.724;2023-03-01T15:32:29;26.50;;;15.80;;
3487;SDS011;38546;48.170;11.724;2023-03-01T15:35:41;27.53;;;14.47;;
3487;SDS011;38546;48.170;11.724;2023-03-01T15:38:50;29.97;;;15.47;;
3487;SDS011;38546;48.170;11.724;2023-03-01T15:41:46;31.30;;;15.10;;
3487;SDS011;38546;48.170;11.724;2023-03-01T15:44:37;28.53;;;14.80;;
3487;SDS011;38546;48.170;11.724;2023-03-01T15:47:30;35.50;;;15.30;;
3487;SDS011;38546;48.170;11.724;2023-03-01T15:50:22;26.83;;;14.77;;
3487;SDS011;38546;48.170;11.724;2023-03-01T15:53:21;30.33;;;15.03;;
3487;SDS011;38546;48.170;11.724;2023-03-01T15:56:10;25.93;;;13.60;;
3487;SDS011;38546;48.170;11.724;2023-03-01T15:58:59;29.53;;;15.30;;
3487;SDS011;38546;48.170;11.724;2023-03-01T16:01:51;32.90;;;15.77;;
3487;SDS011;38546;48.170;11.724;2023-03-01T16:04:39;24.70;;;13.87;;
3487;SDS011;38546;48.170;11.724;2023-03-01T16:07:28;24.27;;;13.20;;
3487;SDS011;38546;48.170;11.724;2023-03-01T16:10:19;20.97;;;12.30;;
3487;SDS011;38546;48.170;11.724;2023-03-01T16:13:09;28.33;;;14.37;;
3487;SDS011;38546;48.170;11.724;2023-03-01T16:15:59;27.00;;;14.33;;
3487;SDS011;38546;48.170;11.724;2023-03-01T16:18:48;25.93;;;15.00;;
3487;SDS011;38546;48.170;11.724;2023-03-01T16:21:38;27.00;;;14.00;;
3487;SDS011;38546;48.170;11.724;2023-03-01T16:24:27;25.57;;;12.83;;
3487;SDS011;38546;48.170;11.724;2023-03-01T16:27:16;21.70;;;12.97;;
3487;SDS011;38546;48.170;11.724;2023-03-01T16:30:07;29.87;;;14.57;;
3487;SDS011;38546;48.170;11.724;2023-03-01T16:33:01;25.70;;;12.20;;
3487;SDS011;38546;48.170;11.724;2023-03-01T16:35:51;34.73;;;13.73;;
3487;SDS011;38546;48.170;11.724;2023-03-01T16:38:42;26.13;;;12.13;;
3487;SDS011;38546;48.170;11.724;2023-03-01T16:41:31;20.87;;;11.57;;
3487;SDS011;38546;48.170;11.724;2023-03-01T16:44:20;26.63;;;12.93;;
3487;SDS011;38546;48.170;11.724;2023-03-01T16:47:09;27.60;;;13.77;;
3487;SDS011;38546;48.170;11.724;2023-03-01T16:49:58;27.40;;;14.27;;
3487;SDS011;38546;48.170;11.724;2023-03-01T16:52:51;25.17;;;13.30;;
3487;SDS011;38546;48.170;11.724;2023-03-01T16:55:40;28.00;;;13.60;;
3487;SDS011;38546;48.170;11.724;2023-03-01T16:58:34;25.47;;;12.60;;
3487;SDS011;38546;48.170;11.724;2023-03-01T17:01:25;25.77;;;12.53;;
3487;SDS011;38546;48.170;11.724;2023-03-01T17:04:14;26.27;;;12.70;;
3487;SDS011;38546;48.170;11.724;2023-03-01T17:07:03;21.57;;;12.80;;
3487;SDS011;38546;48.170;11.724;2023-03-01T17:09:52;22.63;;;11.03;;
3487;SDS011;38546;48.170;11.724;2023-03-01T17:12:40;18.50;;;10.20;;
3487;SDS011;38546;48.170;11.724;2023-03-01T17:15:29;20.03;;;9.80;;
3487;SDS011;38546;48.170;11.724;2023-03-01T17:18:18;24.37;;;11.97;;
3487;SDS011;38546;48.170;11.724;2023-03-01T17:21:07;20.67;;;12.10;;
3487;SDS011;38546;48.170;11.724;2023-03-01T17:23:57;23.33;;;12.80;;
3487;SDS011;38546;48.170;11.724;2023-03-01T17:26:46;27.80;;;12.60;;
3487;SDS011;38546;48.170;11.724;2023-03-01T17:29:36;28.03;;;12.73;;
3487;SDS011;38546;48.170;11.724;2023-03-01T17:32:25;26.57;;;11.63;;
3487;SDS011;38546;48.170;11.724;2023-03-01T17:35:14;25.00;;;13.20;;
3487;SDS011;38546;48.170;11.724;2023-03-01T17:38:04;26.67;;;12.93;;
3487;SDS011;38546;48.170;11.724;2023-03-01T17:40:53;18.67;;;11.23;;
3487;SDS011;38546;48.170;11.724;2023-03-01T17:43:42;26.73;;;13.13;;
3487;SDS011;38546;48.170;11.724;2023-03-01T17:46:32;23.50;;;12.90;;
3487;SDS011;38546;48.170;11.724;2023-03-01T17:49:21;18.80;;;9.73;;
3487;SDS011;38546;48.170;11.724;2023-03-01T17:52:09;21.23;;;11.63;;
3487;SDS011;38546;48.170;11.724;2023-03-01T17:54:58;30.13;;;14.97;;
3487;SDS011;38546;48.170;11.724;2023-03-01T17:57:47;30.23;;;14.70;;
3487;SDS011;38546;48.170;11.724;2023-03-01T18:00:37;32.10;;;16.23;;
3487;SDS011;38546;48.170;11.724;2023-03-01T18:03:26;33.20;;;17.10;;
3487;SDS011;38546;48.170;11.724;2023-03-01T18:06:16;37.63;;;19.70;;
3487;SDS011;38546;48.170;11.724;2023-03-01T18:09:09;38.50;;;18.97;;
3487;SDS011;38546;48.170;11.724;2023-03-01T18:11:59;34.87;;;18.77;;
3487;SDS011;38546;48.170;11.724;2023-03-01T18:14:48;44.03;;;21.00;;
3487;SDS011;38546;48.170;11.724;2023-03-01T18:17:41;42.27;;;20.13;;